<?xml version="1.0" encoding="UTF-8" standalone="no" ?>
<gpx xmlns="http://www.topografix.com/GPX/1/1" creator="MapSource 6.11.6" version="1.1" xmlns:xsi="http://www.w3.org/2001/XMLSchema-instance" xsi:schemaLocation="http://www.topografix.com/GPX/1/1 http://www.topografix.com/GPX/1/1/gpx.xsd">

  <metadata>
    <link href="http://www.garmin.com">
      <text>Garmin International</text>
    </link>
    <time>2009-09-14T15:42:07Z</time>
    <bounds maxlat="50.728411" maxlon="6.503577" minlat="50.708580" minlon="6.478967"/>
  </metadata>

  <trk>
    <name>Landschaftsentdeckungspfad Üdingen - Boich on GPSies.com</name>
    <link href="http://www.gpsies.com/map.do?fileId=jqxkombfianwytlj"/>
    <extensions>
      <gpxx:TrackExtension xmlns:gpxx="http://www.garmin.com/xmlschemas/GpxExtensions/v3" xmlns:xsi="http://www.w3.org/2001/XMLSchema-instance" xsi:schemaLocation="http://www.garmin.com/xmlschemas/GpxExtensions/v3 http://www.garmin.com/xmlschemas/GpxExtensions/v3/GpxExtensionsv3.xsd">
        <gpxx:DisplayColor>White</gpxx:DisplayColor>
      </gpxx:TrackExtension>
    </extensions>
    <trkseg>
      <trkpt lat="50.727305" lon="6.478967">
        <ele>159.235470</ele>
        <time>2009-09-13T18:25:46Z</time>
      </trkpt>
      <trkpt lat="50.727412" lon="6.479421">
        <ele>159.716180</ele>
        <time>2009-09-13T18:25:58Z</time>
      </trkpt>
      <trkpt lat="50.728030" lon="6.480410">
        <ele>158.274170</ele>
        <time>2009-09-13T18:26:33Z</time>
      </trkpt>
      <trkpt lat="50.727985" lon="6.480806">
        <ele>159.235470</ele>
        <time>2009-09-13T18:26:43Z</time>
      </trkpt>
      <trkpt lat="50.727657" lon="6.481428">
        <ele>164.522700</ele>
        <time>2009-09-13T18:27:04Z</time>
      </trkpt>
      <trkpt lat="50.727636" lon="6.481467">
        <ele>166.445310</ele>
        <time>2009-09-13T18:27:05Z</time>
      </trkpt>
      <trkpt lat="50.727670" lon="6.481967">
        <ele>166.445310</ele>
        <time>2009-09-13T18:27:18Z</time>
      </trkpt>
      <trkpt lat="50.727862" lon="6.482443">
        <ele>167.887320</ele>
        <time>2009-09-13T18:27:32Z</time>
      </trkpt>
      <trkpt lat="50.728049" lon="6.483292">
        <ele>172.213250</ele>
        <time>2009-09-13T18:27:55Z</time>
      </trkpt>
      <trkpt lat="50.728121" lon="6.484183">
        <ele>175.097290</ele>
        <time>2009-09-13T18:28:18Z</time>
      </trkpt>
      <trkpt lat="50.728216" lon="6.485398">
        <ele>178.942620</ele>
        <time>2009-09-13T18:28:49Z</time>
      </trkpt>
      <trkpt lat="50.728411" lon="6.486320">
        <ele>182.787840</ele>
        <time>2009-09-13T18:29:14Z</time>
      </trkpt>
      <trkpt lat="50.728249" lon="6.486307">
        <ele>183.749020</ele>
        <time>2009-09-13T18:29:20Z</time>
      </trkpt>
      <trkpt lat="50.727625" lon="6.485929">
        <ele>188.555780</ele>
        <time>2009-09-13T18:29:47Z</time>
      </trkpt>
      <trkpt lat="50.726985" lon="6.485583">
        <ele>190.958980</ele>
        <time>2009-09-13T18:30:14Z</time>
      </trkpt>
      <trkpt lat="50.726788" lon="6.485045">
        <ele>191.920280</ele>
        <time>2009-09-13T18:30:30Z</time>
      </trkpt>
      <trkpt lat="50.726331" lon="6.483775">
        <ele>190.958980</ele>
        <time>2009-09-13T18:31:07Z</time>
      </trkpt>
      <trkpt lat="50.726231" lon="6.483530">
        <ele>191.439570</ele>
        <time>2009-09-13T18:31:14Z</time>
      </trkpt>
      <trkpt lat="50.725997" lon="6.483375">
        <ele>191.920280</ele>
        <time>2009-09-13T18:31:24Z</time>
      </trkpt>
      <trkpt lat="50.725473" lon="6.483530">
        <ele>197.207520</ele>
        <time>2009-09-13T18:31:46Z</time>
      </trkpt>
      <trkpt lat="50.725297" lon="6.483437">
        <ele>197.688230</ele>
        <time>2009-09-13T18:31:53Z</time>
      </trkpt>
      <trkpt lat="50.725160" lon="6.483369">
        <ele>198.649530</ele>
        <time>2009-09-13T18:31:59Z</time>
      </trkpt>
      <trkpt lat="50.724738" lon="6.483118">
        <ele>199.610840</ele>
        <time>2009-09-13T18:32:17Z</time>
      </trkpt>
      <trkpt lat="50.724349" lon="6.483021">
        <ele>202.014280</ele>
        <time>2009-09-13T18:32:33Z</time>
      </trkpt>
      <trkpt lat="50.723777" lon="6.483556">
        <ele>206.340080</ele>
        <time>2009-09-13T18:32:59Z</time>
      </trkpt>
      <trkpt lat="50.723595" lon="6.484431">
        <ele>210.185420</ele>
        <time>2009-09-13T18:33:22Z</time>
      </trkpt>
      <trkpt lat="50.723298" lon="6.485180">
        <ele>214.030640</ele>
        <time>2009-09-13T18:33:45Z</time>
      </trkpt>
      <trkpt lat="50.723150" lon="6.485524">
        <ele>215.472650</ele>
        <time>2009-09-13T18:33:55Z</time>
      </trkpt>
      <trkpt lat="50.723162" lon="6.485489">
        <ele>217.875970</ele>
        <time>2009-09-13T18:33:56Z</time>
      </trkpt>
      <trkpt lat="50.723144" lon="6.485511">
        <ele>218.356560</ele>
        <time>2009-09-13T18:33:57Z</time>
      </trkpt>
      <trkpt lat="50.723140" lon="6.485477">
        <ele>216.914670</ele>
        <time>2009-09-13T18:33:58Z</time>
      </trkpt>
      <trkpt lat="50.723133" lon="6.485472">
        <ele>216.914670</ele>
        <time>2009-09-13T18:33:58Z</time>
      </trkpt>
      <trkpt lat="50.722980" lon="6.485666">
        <ele>217.875970</ele>
        <time>2009-09-13T18:34:06Z</time>
      </trkpt>
      <trkpt lat="50.722772" lon="6.486029">
        <ele>220.279170</ele>
        <time>2009-09-13T18:34:19Z</time>
      </trkpt>
      <trkpt lat="50.722351" lon="6.486238">
        <ele>225.085930</ele>
        <time>2009-09-13T18:34:36Z</time>
      </trkpt>
      <trkpt lat="50.721776" lon="6.486356">
        <ele>231.334350</ele>
        <time>2009-09-13T18:35:00Z</time>
      </trkpt>
      <trkpt lat="50.721769" lon="6.486350">
        <ele>232.776480</ele>
        <time>2009-09-13T18:35:00Z</time>
      </trkpt>
      <trkpt lat="50.721467" lon="6.486405">
        <ele>234.218380</ele>
        <time>2009-09-13T18:35:12Z</time>
      </trkpt>
      <trkpt lat="50.720985" lon="6.487052">
        <ele>236.140990</ele>
        <time>2009-09-13T18:35:37Z</time>
      </trkpt>
      <trkpt lat="50.720212" lon="6.488133">
        <ele>236.621700</ele>
        <time>2009-09-13T18:36:19Z</time>
      </trkpt>
      <trkpt lat="50.719511" lon="6.488625">
        <ele>239.986200</ele>
        <time>2009-09-13T18:36:49Z</time>
      </trkpt>
      <trkpt lat="50.718763" lon="6.489124">
        <ele>241.908930</ele>
        <time>2009-09-13T18:37:22Z</time>
      </trkpt>
      <trkpt lat="50.718334" lon="6.489310">
        <ele>243.350830</ele>
        <time>2009-09-13T18:37:40Z</time>
      </trkpt>
      <trkpt lat="50.718330" lon="6.489319">
        <ele>243.831540</ele>
        <time>2009-09-13T18:37:40Z</time>
      </trkpt>
      <trkpt lat="50.718364" lon="6.489363">
        <ele>243.831540</ele>
        <time>2009-09-13T18:37:42Z</time>
      </trkpt>
      <trkpt lat="50.718499" lon="6.489301">
        <ele>242.870230</ele>
        <time>2009-09-13T18:37:47Z</time>
      </trkpt>
      <trkpt lat="50.718686" lon="6.489800">
        <ele>242.870230</ele>
        <time>2009-09-13T18:38:02Z</time>
      </trkpt>
      <trkpt lat="50.719277" lon="6.491525">
        <ele>241.908930</ele>
        <time>2009-09-13T18:38:52Z</time>
      </trkpt>
      <trkpt lat="50.719208" lon="6.491709">
        <ele>241.908930</ele>
        <time>2009-09-13T18:38:57Z</time>
      </trkpt>
      <trkpt lat="50.718225" lon="6.492600">
        <ele>245.754150</ele>
        <time>2009-09-13T18:39:43Z</time>
      </trkpt>
      <trkpt lat="50.717335" lon="6.493414">
        <ele>248.638180</ele>
        <time>2009-09-13T18:40:24Z</time>
      </trkpt>
      <trkpt lat="50.716451" lon="6.494253">
        <ele>248.638180</ele>
        <time>2009-09-13T18:41:05Z</time>
      </trkpt>
      <trkpt lat="50.716434" lon="6.494266">
        <ele>248.638180</ele>
        <time>2009-09-13T18:41:06Z</time>
      </trkpt>
      <trkpt lat="50.716427" lon="6.494451">
        <ele>248.157590</ele>
        <time>2009-09-13T18:41:11Z</time>
      </trkpt>
      <trkpt lat="50.716767" lon="6.495646">
        <ele>244.312250</ele>
        <time>2009-09-13T18:41:44Z</time>
      </trkpt>
      <trkpt lat="50.717468" lon="6.497085">
        <ele>242.389640</ele>
        <time>2009-09-13T18:42:30Z</time>
      </trkpt>
      <trkpt lat="50.718010" lon="6.498162">
        <ele>240.947630</ele>
        <time>2009-09-13T18:43:05Z</time>
      </trkpt>
      <trkpt lat="50.718802" lon="6.499820">
        <ele>239.505490</ele>
        <time>2009-09-13T18:43:57Z</time>
      </trkpt>
      <trkpt lat="50.719543" lon="6.501274">
        <ele>234.699090</ele>
        <time>2009-09-13T18:44:45Z</time>
      </trkpt>
      <trkpt lat="50.719528" lon="6.501631">
        <ele>233.737670</ele>
        <time>2009-09-13T18:44:54Z</time>
      </trkpt>
      <trkpt lat="50.718617" lon="6.502798">
        <ele>224.605220</ele>
        <time>2009-09-13T18:45:41Z</time>
      </trkpt>
      <trkpt lat="50.718328" lon="6.503108">
        <ele>220.279170</ele>
        <time>2009-09-13T18:45:55Z</time>
      </trkpt>
      <trkpt lat="50.718172" lon="6.502832">
        <ele>220.759880</ele>
        <time>2009-09-13T18:46:04Z</time>
      </trkpt>
      <trkpt lat="50.717629" lon="6.501877">
        <ele>223.163200</ele>
        <time>2009-09-13T18:46:36Z</time>
      </trkpt>
      <trkpt lat="50.717515" lon="6.501920">
        <ele>222.682490</ele>
        <time>2009-09-13T18:46:41Z</time>
      </trkpt>
      <trkpt lat="50.717274" lon="6.502238">
        <ele>218.837280</ele>
        <time>2009-09-13T18:46:54Z</time>
      </trkpt>
      <trkpt lat="50.717114" lon="6.502216">
        <ele>218.356560</ele>
        <time>2009-09-13T18:47:00Z</time>
      </trkpt>
      <trkpt lat="50.716946" lon="6.501911">
        <ele>218.837280</ele>
        <time>2009-09-13T18:47:10Z</time>
      </trkpt>
      <trkpt lat="50.716744" lon="6.501599">
        <ele>219.798580</ele>
        <time>2009-09-13T18:47:22Z</time>
      </trkpt>
      <trkpt lat="50.716013" lon="6.500434">
        <ele>221.240600</ele>
        <time>2009-09-13T18:48:03Z</time>
      </trkpt>
      <trkpt lat="50.715468" lon="6.499421">
        <ele>223.163200</ele>
        <time>2009-09-13T18:48:37Z</time>
      </trkpt>
      <trkpt lat="50.715501" lon="6.499246">
        <ele>223.643790</ele>
        <time>2009-09-13T18:48:42Z</time>
      </trkpt>
      <trkpt lat="50.715746" lon="6.498872">
        <ele>225.085930</ele>
        <time>2009-09-13T18:48:55Z</time>
      </trkpt>
      <trkpt lat="50.715669" lon="6.498675">
        <ele>225.566520</ele>
        <time>2009-09-13T18:49:01Z</time>
      </trkpt>
      <trkpt lat="50.715542" lon="6.498449">
        <ele>226.047110</ele>
        <time>2009-09-13T18:49:09Z</time>
      </trkpt>
      <trkpt lat="50.715337" lon="6.497558">
        <ele>228.450430</ele>
        <time>2009-09-13T18:49:33Z</time>
      </trkpt>
      <trkpt lat="50.714928" lon="6.496867">
        <ele>228.931150</ele>
        <time>2009-09-13T18:49:57Z</time>
      </trkpt>
      <trkpt lat="50.714718" lon="6.496515">
        <ele>227.969720</ele>
        <time>2009-09-13T18:50:09Z</time>
      </trkpt>
      <trkpt lat="50.714639" lon="6.496282">
        <ele>229.892330</ele>
        <time>2009-09-13T18:50:16Z</time>
      </trkpt>
      <trkpt lat="50.714476" lon="6.496066">
        <ele>229.411740</ele>
        <time>2009-09-13T18:50:24Z</time>
      </trkpt>
      <trkpt lat="50.714225" lon="6.495465">
        <ele>229.411740</ele>
        <time>2009-09-13T18:50:43Z</time>
      </trkpt>
      <trkpt lat="50.713797" lon="6.494782">
        <ele>229.892330</ele>
        <time>2009-09-13T18:51:07Z</time>
      </trkpt>
      <trkpt lat="50.713634" lon="6.494861">
        <ele>228.931150</ele>
        <time>2009-09-13T18:51:14Z</time>
      </trkpt>
      <trkpt lat="50.713372" lon="6.494900">
        <ele>228.450430</ele>
        <time>2009-09-13T18:51:24Z</time>
      </trkpt>
      <trkpt lat="50.713212" lon="6.495104">
        <ele>228.931150</ele>
        <time>2009-09-13T18:51:32Z</time>
      </trkpt>
      <trkpt lat="50.713006" lon="6.495684">
        <ele>229.411740</ele>
        <time>2009-09-13T18:51:49Z</time>
      </trkpt>
      <trkpt lat="50.713042" lon="6.496264">
        <ele>228.931150</ele>
        <time>2009-09-13T18:52:04Z</time>
      </trkpt>
      <trkpt lat="50.713112" lon="6.496382">
        <ele>228.931150</ele>
        <time>2009-09-13T18:52:08Z</time>
      </trkpt>
      <trkpt lat="50.713034" lon="6.496724">
        <ele>230.853760</ele>
        <time>2009-09-13T18:52:17Z</time>
      </trkpt>
      <trkpt lat="50.712832" lon="6.496872">
        <ele>232.776480</ele>
        <time>2009-09-13T18:52:26Z</time>
      </trkpt>
      <trkpt lat="50.712842" lon="6.496880">
        <ele>233.737670</ele>
        <time>2009-09-13T18:52:27Z</time>
      </trkpt>
      <trkpt lat="50.713160" lon="6.496580">
        <ele>229.892330</ele>
        <time>2009-09-13T18:52:42Z</time>
      </trkpt>
      <trkpt lat="50.713174" lon="6.496567">
        <ele>229.892330</ele>
        <time>2009-09-13T18:52:42Z</time>
      </trkpt>
      <trkpt lat="50.713264" lon="6.496657">
        <ele>228.931150</ele>
        <time>2009-09-13T18:52:46Z</time>
      </trkpt>
      <trkpt lat="50.713860" lon="6.497809">
        <ele>225.085930</ele>
        <time>2009-09-13T18:53:24Z</time>
      </trkpt>
      <trkpt lat="50.713920" lon="6.498188">
        <ele>225.566520</ele>
        <time>2009-09-13T18:53:34Z</time>
      </trkpt>
      <trkpt lat="50.713484" lon="6.498699">
        <ele>225.085930</ele>
        <time>2009-09-13T18:53:56Z</time>
      </trkpt>
      <trkpt lat="50.713392" lon="6.499136">
        <ele>231.334350</ele>
        <time>2009-09-13T18:54:07Z</time>
      </trkpt>
      <trkpt lat="50.713483" lon="6.499395">
        <ele>232.295770</ele>
        <time>2009-09-13T18:54:15Z</time>
      </trkpt>
      <trkpt lat="50.713705" lon="6.500124">
        <ele>237.102290</ele>
        <time>2009-09-13T18:54:35Z</time>
      </trkpt>
      <trkpt lat="50.713913" lon="6.500873">
        <ele>243.350830</ele>
        <time>2009-09-13T18:54:56Z</time>
      </trkpt>
      <trkpt lat="50.713696" lon="6.501643">
        <ele>245.754150</ele>
        <time>2009-09-13T18:55:18Z</time>
      </trkpt>
      <trkpt lat="50.712889" lon="6.502588">
        <ele>248.157590</ele>
        <time>2009-09-13T18:55:58Z</time>
      </trkpt>
      <trkpt lat="50.712195" lon="6.503340">
        <ele>250.080200</ele>
        <time>2009-09-13T18:56:31Z</time>
      </trkpt>
      <trkpt lat="50.712145" lon="6.503390">
        <ele>250.560790</ele>
        <time>2009-09-13T18:56:34Z</time>
      </trkpt>
      <trkpt lat="50.711973" lon="6.503577">
        <ele>251.522090</ele>
        <time>2009-09-13T18:56:42Z</time>
      </trkpt>
      <trkpt lat="50.711857" lon="6.503480">
        <ele>252.002800</ele>
        <time>2009-09-13T18:56:47Z</time>
      </trkpt>
      <trkpt lat="50.711038" lon="6.502535">
        <ele>254.406000</ele>
        <time>2009-09-13T18:57:28Z</time>
      </trkpt>
      <trkpt lat="50.710222" lon="6.501257">
        <ele>257.290030</ele>
        <time>2009-09-13T18:58:14Z</time>
      </trkpt>
      <trkpt lat="50.709552" lon="6.499775">
        <ele>259.693350</ele>
        <time>2009-09-13T18:59:00Z</time>
      </trkpt>
      <trkpt lat="50.708935" lon="6.498409">
        <ele>264.499870</ele>
        <time>2009-09-13T18:59:43Z</time>
      </trkpt>
      <trkpt lat="50.708650" lon="6.497652">
        <ele>265.941890</ele>
        <time>2009-09-13T19:00:05Z</time>
      </trkpt>
      <trkpt lat="50.708650" lon="6.497613">
        <ele>266.903190</ele>
        <time>2009-09-13T19:00:06Z</time>
      </trkpt>
      <trkpt lat="50.708657" lon="6.497616">
        <ele>265.461300</ele>
        <time>2009-09-13T19:00:06Z</time>
      </trkpt>
      <trkpt lat="50.708934" lon="6.497009">
        <ele>262.577140</ele>
        <time>2009-09-13T19:00:25Z</time>
      </trkpt>
      <trkpt lat="50.709584" lon="6.495563">
        <ele>254.406000</ele>
        <time>2009-09-13T19:01:10Z</time>
      </trkpt>
      <trkpt lat="50.709713" lon="6.495264">
        <ele>253.444700</ele>
        <time>2009-09-13T19:01:19Z</time>
      </trkpt>
      <trkpt lat="50.709943" lon="6.494946">
        <ele>251.522090</ele>
        <time>2009-09-13T19:01:32Z</time>
      </trkpt>
      <trkpt lat="50.710230" lon="6.494713">
        <ele>249.599480</ele>
        <time>2009-09-13T19:01:45Z</time>
      </trkpt>
      <trkpt lat="50.710448" lon="6.494336">
        <ele>247.676750</ele>
        <time>2009-09-13T19:01:58Z</time>
      </trkpt>
      <trkpt lat="50.710450" lon="6.494334">
        <ele>247.676750</ele>
        <time>2009-09-13T19:01:58Z</time>
      </trkpt>
      <trkpt lat="50.710520" lon="6.494172">
        <ele>248.157590</ele>
        <time>2009-09-13T19:02:03Z</time>
      </trkpt>
      <trkpt lat="50.710540" lon="6.494011">
        <ele>248.157590</ele>
        <time>2009-09-13T19:02:07Z</time>
      </trkpt>
      <trkpt lat="50.710529" lon="6.494047">
        <ele>248.157590</ele>
        <time>2009-09-13T19:02:08Z</time>
      </trkpt>
      <trkpt lat="50.710494" lon="6.494045">
        <ele>248.638180</ele>
        <time>2009-09-13T19:02:09Z</time>
      </trkpt>
      <trkpt lat="50.710333" lon="6.493761">
        <ele>250.080200</ele>
        <time>2009-09-13T19:02:19Z</time>
      </trkpt>
      <trkpt lat="50.710331" lon="6.493751">
        <ele>253.444700</ele>
        <time>2009-09-13T19:02:19Z</time>
      </trkpt>
      <trkpt lat="50.710331" lon="6.493751">
        <ele>253.444700</ele>
        <time>2009-09-13T19:02:19Z</time>
      </trkpt>
      <trkpt lat="50.710334" lon="6.493780">
        <ele>253.444700</ele>
        <time>2009-09-13T19:02:20Z</time>
      </trkpt>
      <trkpt lat="50.710545" lon="6.494070">
        <ele>251.041380</ele>
        <time>2009-09-13T19:02:31Z</time>
      </trkpt>
      <trkpt lat="50.710625" lon="6.493828">
        <ele>248.638180</ele>
        <time>2009-09-13T19:02:38Z</time>
      </trkpt>
      <trkpt lat="50.710059" lon="6.493158">
        <ele>252.963980</ele>
        <time>2009-09-13T19:03:06Z</time>
      </trkpt>
      <trkpt lat="50.709450" lon="6.492281">
        <ele>257.770750</ele>
        <time>2009-09-13T19:03:39Z</time>
      </trkpt>
      <trkpt lat="50.708720" lon="6.491455">
        <ele>262.096550</ele>
        <time>2009-09-13T19:04:15Z</time>
      </trkpt>
      <trkpt lat="50.708580" lon="6.491101">
        <ele>264.019280</ele>
        <time>2009-09-13T19:04:26Z</time>
      </trkpt>
      <trkpt lat="50.708655" lon="6.490980">
        <ele>264.019280</ele>
        <time>2009-09-13T19:04:30Z</time>
      </trkpt>
      <trkpt lat="50.709404" lon="6.490567">
        <ele>257.770750</ele>
        <time>2009-09-13T19:05:02Z</time>
      </trkpt>
      <trkpt lat="50.710116" lon="6.490192">
        <ele>249.118770</ele>
        <time>2009-09-13T19:05:32Z</time>
      </trkpt>
      <trkpt lat="50.710860" lon="6.489268">
        <ele>239.986200</ele>
        <time>2009-09-13T19:06:10Z</time>
      </trkpt>
      <trkpt lat="50.711134" lon="6.489113">
        <ele>239.505490</ele>
        <time>2009-09-13T19:06:21Z</time>
      </trkpt>
      <trkpt lat="50.711569" lon="6.489112">
        <ele>240.467040</ele>
        <time>2009-09-13T19:06:39Z</time>
      </trkpt>
      <trkpt lat="50.711537" lon="6.489123">
        <ele>239.986200</ele>
        <time>2009-09-13T19:06:40Z</time>
      </trkpt>
      <trkpt lat="50.711521" lon="6.489151">
        <ele>240.467040</ele>
        <time>2009-09-13T19:06:41Z</time>
      </trkpt>
      <trkpt lat="50.711526" lon="6.489159">
        <ele>244.312250</ele>
        <time>2009-09-13T19:06:41Z</time>
      </trkpt>
      <trkpt lat="50.711550" lon="6.489134">
        <ele>244.792840</ele>
        <time>2009-09-13T19:06:43Z</time>
      </trkpt>
      <trkpt lat="50.711867" lon="6.488897">
        <ele>244.792840</ele>
        <time>2009-09-13T19:06:57Z</time>
      </trkpt>
      <trkpt lat="50.711869" lon="6.488869">
        <ele>244.792840</ele>
        <time>2009-09-13T19:06:57Z</time>
      </trkpt>
      <trkpt lat="50.711815" lon="6.488935">
        <ele>242.870230</ele>
        <time>2009-09-13T19:07:00Z</time>
      </trkpt>
      <trkpt lat="50.711788" lon="6.488952">
        <ele>241.428220</ele>
        <time>2009-09-13T19:07:01Z</time>
      </trkpt>
      <trkpt lat="50.711836" lon="6.488934">
        <ele>241.428220</ele>
        <time>2009-09-13T19:07:03Z</time>
      </trkpt>
      <trkpt lat="50.712359" lon="6.488507">
        <ele>240.467040</ele>
        <time>2009-09-13T19:07:27Z</time>
      </trkpt>
      <trkpt lat="50.712383" lon="6.488509">
        <ele>240.467040</ele>
        <time>2009-09-13T19:07:28Z</time>
      </trkpt>
      <trkpt lat="50.712460" lon="6.488685">
        <ele>240.467040</ele>
        <time>2009-09-13T19:07:33Z</time>
      </trkpt>
      <trkpt lat="50.712600" lon="6.488571">
        <ele>239.986200</ele>
        <time>2009-09-13T19:07:39Z</time>
      </trkpt>
      <trkpt lat="50.712670" lon="6.488631">
        <ele>239.986200</ele>
        <time>2009-09-13T19:07:43Z</time>
      </trkpt>
      <trkpt lat="50.713686" lon="6.489431">
        <ele>245.273430</ele>
        <time>2009-09-13T19:08:28Z</time>
      </trkpt>
      <trkpt lat="50.714190" lon="6.489151">
        <ele>246.234860</ele>
        <time>2009-09-13T19:08:50Z</time>
      </trkpt>
      <trkpt lat="50.714618" lon="6.488790">
        <ele>248.157590</ele>
        <time>2009-09-13T19:09:09Z</time>
      </trkpt>
      <trkpt lat="50.714580" lon="6.488533">
        <ele>248.638180</ele>
        <time>2009-09-13T19:09:16Z</time>
      </trkpt>
      <trkpt lat="50.714104" lon="6.487220">
        <ele>250.080200</ele>
        <time>2009-09-13T19:09:54Z</time>
      </trkpt>
      <trkpt lat="50.714069" lon="6.486890">
        <ele>252.002800</ele>
        <time>2009-09-13T19:10:02Z</time>
      </trkpt>
      <trkpt lat="50.713838" lon="6.486266">
        <ele>254.406000</ele>
        <time>2009-09-13T19:10:21Z</time>
      </trkpt>
      <trkpt lat="50.713469" lon="6.485303">
        <ele>257.290030</ele>
        <time>2009-09-13T19:10:49Z</time>
      </trkpt>
      <trkpt lat="50.713062" lon="6.483920">
        <ele>263.057860</ele>
        <time>2009-09-13T19:11:28Z</time>
      </trkpt>
      <trkpt lat="50.712742" lon="6.482898">
        <ele>267.864500</ele>
        <time>2009-09-13T19:11:57Z</time>
      </trkpt>
      <trkpt lat="50.712727" lon="6.482863">
        <ele>267.864500</ele>
        <time>2009-09-13T19:11:58Z</time>
      </trkpt>
      <trkpt lat="50.712749" lon="6.482771">
        <ele>267.864500</ele>
        <time>2009-09-13T19:12:00Z</time>
      </trkpt>
      <trkpt lat="50.712884" lon="6.482660">
        <ele>266.903190</ele>
        <time>2009-09-13T19:12:07Z</time>
      </trkpt>
      <trkpt lat="50.713758" lon="6.482030">
        <ele>264.499870</ele>
        <time>2009-09-13T19:12:45Z</time>
      </trkpt>
      <trkpt lat="50.715098" lon="6.481046">
        <ele>257.770750</ele>
        <time>2009-09-13T19:13:44Z</time>
      </trkpt>
      <trkpt lat="50.716296" lon="6.480185">
        <ele>245.754150</ele>
        <time>2009-09-13T19:14:37Z</time>
      </trkpt>
      <trkpt lat="50.716411" lon="6.480321">
        <ele>244.792840</ele>
        <time>2009-09-13T19:14:43Z</time>
      </trkpt>
      <trkpt lat="50.717013" lon="6.482277">
        <ele>239.024900</ele>
        <time>2009-09-13T19:15:38Z</time>
      </trkpt>
      <trkpt lat="50.717102" lon="6.482561">
        <ele>237.582880</ele>
        <time>2009-09-13T19:15:46Z</time>
      </trkpt>
      <trkpt lat="50.717328" lon="6.482591">
        <ele>235.660270</ele>
        <time>2009-09-13T19:15:55Z</time>
      </trkpt>
      <trkpt lat="50.717438" lon="6.482581">
        <ele>234.218380</ele>
        <time>2009-09-13T19:15:59Z</time>
      </trkpt>
      <trkpt lat="50.718548" lon="6.483059">
        <ele>227.969720</ele>
        <time>2009-09-13T19:16:45Z</time>
      </trkpt>
      <trkpt lat="50.718867" lon="6.482976">
        <ele>225.566520</ele>
        <time>2009-09-13T19:16:58Z</time>
      </trkpt>
      <trkpt lat="50.720440" lon="6.482034">
        <ele>211.627440</ele>
        <time>2009-09-13T19:18:06Z</time>
      </trkpt>
      <trkpt lat="50.722541" lon="6.480889">
        <ele>198.649530</ele>
        <time>2009-09-13T19:19:35Z</time>
      </trkpt>
      <trkpt lat="50.722734" lon="6.480801">
        <ele>196.246330</ele>
        <time>2009-09-13T19:19:43Z</time>
      </trkpt>
      <trkpt lat="50.722962" lon="6.480766">
        <ele>194.323730</ele>
        <time>2009-09-13T19:19:52Z</time>
      </trkpt>
      <trkpt lat="50.723328" lon="6.480489">
        <ele>190.958980</ele>
        <time>2009-09-13T19:20:08Z</time>
      </trkpt>
      <trkpt lat="50.724263" lon="6.480285">
        <ele>184.229850</ele>
        <time>2009-09-13T19:20:46Z</time>
      </trkpt>
      <trkpt lat="50.724294" lon="6.480284">
        <ele>183.749020</ele>
        <time>2009-09-13T19:20:47Z</time>
      </trkpt>
      <trkpt lat="50.724343" lon="6.480422">
        <ele>183.749020</ele>
        <time>2009-09-13T19:20:51Z</time>
      </trkpt>
      <trkpt lat="50.724408" lon="6.481243">
        <ele>177.500610</ele>
        <time>2009-09-13T19:21:12Z</time>
      </trkpt>
      <trkpt lat="50.724347" lon="6.481327">
        <ele>174.135860</ele>
        <time>2009-09-13T19:21:15Z</time>
      </trkpt>
      <trkpt lat="50.724313" lon="6.481323">
        <ele>176.058590</ele>
        <time>2009-09-13T19:21:17Z</time>
      </trkpt>
      <trkpt lat="50.724351" lon="6.481175">
        <ele>176.539300</ele>
        <time>2009-09-13T19:21:21Z</time>
      </trkpt>
      <trkpt lat="50.724259" lon="6.480386">
        <ele>180.865230</ele>
        <time>2009-09-13T19:21:41Z</time>
      </trkpt>
      <trkpt lat="50.724349" lon="6.480298">
        <ele>180.384520</ele>
        <time>2009-09-13T19:21:45Z</time>
      </trkpt>
      <trkpt lat="50.724547" lon="6.480305">
        <ele>179.903800</ele>
        <time>2009-09-13T19:21:53Z</time>
      </trkpt>
      <trkpt lat="50.724763" lon="6.480366">
        <ele>178.461910</ele>
        <time>2009-09-13T19:22:02Z</time>
      </trkpt>
      <trkpt lat="50.725081" lon="6.480606">
        <ele>176.539300</ele>
        <time>2009-09-13T19:22:16Z</time>
      </trkpt>
      <trkpt lat="50.725412" lon="6.481360">
        <ele>172.213250</ele>
        <time>2009-09-13T19:22:39Z</time>
      </trkpt>
      <trkpt lat="50.725525" lon="6.481419">
        <ele>172.213250</ele>
        <time>2009-09-13T19:22:44Z</time>
      </trkpt>
      <trkpt lat="50.726126" lon="6.481518">
        <ele>172.213250</ele>
        <time>2009-09-13T19:23:08Z</time>
      </trkpt>
      <trkpt lat="50.726809" lon="6.481329">
        <ele>171.252070</ele>
        <time>2009-09-13T19:23:36Z</time>
      </trkpt>
      <trkpt lat="50.727130" lon="6.481401">
        <ele>170.290640</ele>
        <time>2009-09-13T19:23:49Z</time>
      </trkpt>
      <trkpt lat="50.727708" lon="6.481447">
        <ele>162.600090</ele>
        <time>2009-09-13T19:24:12Z</time>
      </trkpt>
      <trkpt lat="50.728084" lon="6.480661">
        <ele>156.832150</ele>
        <time>2009-09-13T19:24:37Z</time>
      </trkpt>
      <trkpt lat="50.728085" lon="6.480651">
        <ele>156.832150</ele>
        <time>2009-09-13T19:24:37Z</time>
      </trkpt>
      <trkpt lat="50.728001" lon="6.480300">
        <ele>155.870970</ele>
        <time>2009-09-13T19:24:47Z</time>
      </trkpt>
      <trkpt lat="50.727932" lon="6.480169">
        <ele>155.390250</ele>
        <time>2009-09-13T19:24:51Z</time>
      </trkpt>
      <trkpt lat="50.727548" lon="6.479609">
        <ele>154.909540</ele>
        <time>2009-09-13T19:25:12Z</time>
      </trkpt>
      <trkpt lat="50.727421" lon="6.479433">
        <ele>153.948360</ele>
        <time>2009-09-13T19:25:19Z</time>
      </trkpt>
      <trkpt lat="50.727370" lon="6.479294">
        <ele>154.428950</ele>
        <time>2009-09-13T19:25:23Z</time>
      </trkpt>
    </trkseg>
  </trk>

</gpx>
